sensor_id;sensor_type;location;lat;lon;timestamp;pressure;altitude;pressure_sealevel;temperature;humidity
6198;BME280;3132;42.622;23.328;2023-02-04T00:00:14;92526.22;;;1.26;77.14
6198;BME280;3132;42.622;23.328;2023-02-04T00:02:40;92538.94;;;0.86;80.34
6198;BME280;3132;42.622;23.328;2023-02-04T00:05:07;92524.09;;;0.88;81.15
6198;BME280;3132;42.622;23.328;2023-02-04T00:07:32;92516.94;;;1.02;80.47
6198;BME280;3132;42.622;23.328;2023-02-04T00:09:58;92520.28;;;1.02;81.52
6198;BME280;3132;42.622;23.328;2023-02-04T00:12:23;92508.56;;;1.06;82.06
6198;BME280;3132;42.622;23.328;2023-02-04T00:14:49;92516.47;;;0.82;83.45
6198;BME280;3132;42.622;23.328;2023-02-04T00:17:14;92517.81;;;0.84;83.64
6198;BME280;3132;42.622;23.328;2023-02-04T00:19:39;92481.03;;;0.49;84.60
6198;BME280;3132;42.622;23.328;2023-02-04T00:22:06;92522.84;;;0.91;83.41
6198;BME280;3132;42.622;23.328;2023-02-04T00:24:35;92493.25;;;0.88;84.07
6198;BME280;3132;42.622;23.328;2023-02-04T00:27:01;92510.16;;;0.55;85.97
6198;BME280;3132;42.622;23.328;2023-02-04T00:29:27;92517.66;;;0.56;86.78
6198;BME280;3132;42.622;23.328;2023-02-04T00:31:52;92479.69;;;0.58;85.18
6198;BME280;3132;42.622;23.328;2023-02-04T00:34:17;92462.94;;;0.44;87.14
6198;BME280;3132;42.622;23.328;2023-02-04T00:36:43;92489.00;;;0.82;85.24
6198;BME280;3132;42.622;23.328;2023-02-04T00:39:09;92495.09;;;0.58;86.29
6198;BME280;3132;42.622;23.328;2023-02-04T00:41:34;92460.28;;;0.74;85.41
6198;BME280;3132;42.622;23.328;2023-02-04T00:44:00;92503.31;;;0.90;84.91
6198;BME280;3132;42.622;23.328;2023-02-04T00:46:25;92505.25;;;0.53;87.16
6198;BME280;3132;42.622;23.328;2023-02-04T00:48:50;92497.25;;;0.73;86.93
6198;BME280;3132;42.622;23.328;2023-02-04T00:51:16;92474.78;;;0.57;87.37
6198;BME280;3132;42.622;23.328;2023-02-04T00:53:41;92502.50;;;0.66;88.69
6198;BME280;3132;42.622;23.328;2023-02-04T00:56:07;92502.63;;;0.71;89.00
6198;BME280;3132;42.622;23.328;2023-02-04T00:58:32;92432.69;;;0.46;89.27
6198;BME280;3132;42.622;23.328;2023-02-04T01:00:57;92484.16;;;0.63;90.36
6198;BME280;3132;42.622;23.328;2023-02-04T01:03:23;92447.88;;;0.48;90.30
6198;BME280;3132;42.622;23.328;2023-02-04T01:05:48;92422.31;;;0.53;89.62
6198;BME280;3132;42.622;23.328;2023-02-04T01:08:14;92461.97;;;0.91;89.01
6198;BME280;3132;42.622;23.328;2023-02-04T01:10:39;92456.03;;;0.45;90.59
6198;BME280;3132;42.622;23.328;2023-02-04T01:13:04;92440.53;;;0.51;91.05
6198;BME280;3132;42.622;23.328;2023-02-04T01:15:30;92417.41;;;0.63;90.03
6198;BME280;3132;42.622;23.328;2023-02-04T01:17:55;92430.47;;;0.61;91.00
6198;BME280;3132;42.622;23.328;2023-02-04T01:20:20;92403.22;;;0.37;91.79
6198;BME280;3132;42.622;23.328;2023-02-04T01:22:46;92430.91;;;0.47;92.39
6198;BME280;3132;42.622;23.328;2023-02-04T01:25:11;92398.22;;;0.65;90.46
6198;BME280;3132;42.622;23.328;2023-02-04T01:27:37;92422.19;;;0.59;91.21
6198;BME280;3132;42.622;23.328;2023-02-04T01:30:04;92410.94;;;0.60;92.07
6198;BME280;3132;42.622;23.328;2023-02-04T01:32:29;92410.94;;;0.60;91.95
6198;BME280;3132;42.622;23.328;2023-02-04T01:34:55;92402.97;;;0.73;90.94
6198;BME280;3132;42.622;23.328;2023-02-04T01:37:20;92410.91;;;0.37;93.17
6198;BME280;3132;42.622;23.328;2023-02-04T01:39:46;92404.44;;;0.46;93.69
6198;BME280;3132;42.622;23.328;2023-02-04T01:42:11;92419.59;;;0.36;94.73
6198;BME280;3132;42.622;23.328;2023-02-04T01:44:36;92394.38;;;0.33;94.09
6198;BME280;3132;42.622;23.328;2023-02-04T01:47:03;92402.56;;;0.65;93.49
6198;BME280;3132;42.622;23.328;2023-02-04T01:49:29;92388.81;;;0.48;93.23
6198;BME280;3132;42.622;23.328;2023-02-04T01:51:55;92386.59;;;0.74;92.61
6198;BME280;3132;42.622;23.328;2023-02-04T01:54:20;92400.41;;;0.73;93.06
6198;BME280;3132;42.622;23.328;2023-02-04T01:56:47;92383.91;;;0.69;92.50
6198;BME280;3132;42.622;23.328;2023-02-04T01:59:15;92395.28;;;0.85;92.14
6198;BME280;3132;42.622;23.328;2023-02-04T02:01:43;92383.97;;;0.86;91.74
6198;BME280;3132;42.622;23.328;2023-02-04T02:04:10;92386.88;;;0.89;92.10
6198;BME280;3132;42.622;23.328;2023-02-04T02:06:38;92397.06;;;0.61;92.94
6198;BME280;3132;42.622;23.328;2023-02-04T02:09:05;92380.88;;;0.72;92.73
6198;BME280;3132;42.622;23.328;2023-02-04T02:11:31;92372.16;;;0.73;92.82
6198;BME280;3132;42.622;23.328;2023-02-04T02:13:57;92390.13;;;0.96;91.53
6198;BME280;3132;42.622;23.328;2023-02-04T02:16:23;92362.41;;;0.98;91.51
6198;BME280;3132;42.622;23.328;2023-02-04T02:18:48;92357.34;;;0.64;92.29
6198;BME280;3132;42.622;23.328;2023-02-04T02:21:18;92368.78;;;1.07;90.63
6198;BME280;3132;42.622;23.328;2023-02-04T02:23:55;92358.63;;;0.89;90.03
6198;BME280;3132;42.622;23.328;2023-02-04T02:26:22;92363.00;;;0.77;91.56
6198;BME280;3132;42.622;23.328;2023-02-04T02:28:48;92337.31;;;0.66;92.56
6198;BME280;3132;42.622;23.328;2023-02-04T02:31:16;92345.72;;;0.61;94.21
6198;BME280;3132;42.622;23.328;2023-02-04T02:33:41;92360.09;;;0.74;92.34
6198;BME280;3132;42.622;23.328;2023-02-04T02:36:07;92337.28;;;0.89;90.77
6198;BME280;3132;42.622;23.328;2023-02-04T02:38:33;92275.16;;;0.41;92.32
6198;BME280;3132;42.622;23.328;2023-02-04T02:40:58;92293.38;;;0.51;92.89
6198;BME280;3132;42.622;23.328;2023-02-04T02:43:26;92282.88;;;0.52;93.48
6198;BME280;3132;42.622;23.328;2023-02-04T02:45:52;92315.22;;;0.53;92.56
6198;BME280;3132;42.622;23.328;2023-02-04T02:48:19;92294.16;;;0.51;92.80
6198;BME280;3132;42.622;23.328;2023-02-04T02:50:44;92266.03;;;0.33;93.43
6198;BME280;3132;42.622;23.328;2023-02-04T02:53:15;92281.22;;;0.46;93.67
6198;BME280;3132;42.622;23.328;2023-02-04T02:55:42;92282.69;;;0.08;95.53
6198;BME280;3132;42.622;23.328;2023-02-04T02:58:29;92282.53;;;0.49;93.69
6198;BME280;3132;42.622;23.328;2023-02-04T03:01:00;92297.75;;;0.27;95.24
6198;BME280;3132;42.622;23.328;2023-02-04T03:03:29;92286.38;;;0.23;95.38
6198;BME280;3132;42.622;23.328;2023-02-04T03:06:00;92260.16;;;0.21;94.89
6198;BME280;3132;42.622;23.328;2023-02-04T03:08:28;92259.81;;;0.29;96.58
6198;BME280;3132;42.622;23.328;2023-02-04T03:10:54;92290.81;;;0.39;95.65
6198;BME280;3132;42.622;23.328;2023-02-04T03:13:20;92283.56;;;0.48;94.98
6198;BME280;3132;42.622;23.328;2023-02-04T03:15:46;92281.91;;;0.81;93.61
6198;BME280;3132;42.622;23.328;2023-02-04T03:18:13;92281.50;;;0.73;93.03
6198;BME280;3132;42.622;23.328;2023-02-04T03:20:40;92304.97;;;0.65;94.19
6198;BME280;3132;42.622;23.328;2023-02-04T03:23:06;92319.97;;;0.84;93.71
6198;BME280;3132;42.622;23.328;2023-02-04T03:25:32;92322.94;;;1.04;92.19
6198;BME280;3132;42.622;23.328;2023-02-04T03:27:58;92330.41;;;0.55;94.12
6198;BME280;3132;42.622;23.328;2023-02-04T03:30:24;92294.00;;;0.58;95.14
6198;BME280;3132;42.622;23.328;2023-02-04T03:32:50;92294.75;;;0.81;94.42
6198;BME280;3132;42.622;23.328;2023-02-04T03:35:16;92300.97;;;0.97;92.46
6198;BME280;3132;42.622;23.328;2023-02-04T03:37:41;92288.63;;;0.82;93.65
6198;BME280;3132;42.622;23.328;2023-02-04T03:40:07;92278.66;;;0.86;92.32
6198;BME280;3132;42.622;23.328;2023-02-04T03:42:33;92307.19;;;0.73;93.58
6198;BME280;3132;42.622;23.328;2023-02-04T03:44:59;92292.66;;;1.06;92.09
6198;BME280;3132;42.622;23.328;2023-02-04T03:47:24;92293.34;;;1.02;92.01
6198;BME280;3132;42.622;23.328;2023-02-04T03:49:49;92276.16;;;1.02;92.38
6198;BME280;3132;42.622;23.328;2023-02-04T03:52:15;92226.97;;;0.82;91.87
6198;BME280;3132;42.622;23.328;2023-02-04T03:54:40;92267.06;;;1.11;91.58
6198;BME280;3132;42.622;23.328;2023-02-04T03:57:06;92254.84;;;0.90;92.33
6198;BME280;3132;42.622;23.328;2023-02-04T03:59:31;92218.88;;;0.90;92.94
6198;BME280;3132;42.622;23.328;2023-02-04T04:01:57;92210.88;;;1.03;92.33
6198;BME280;3132;42.622;23.328;2023-02-04T04:04:22;92228.38;;;1.34;89.06
6198;BME280;3132;42.622;23.328;2023-02-04T04:06:47;92218.72;;;1.75;87.15
6198;BME280;3132;42.622;23.328;2023-02-04T04:09:13;92191.38;;;1.35;88.21
6198;BME280;3132;42.622;23.328;2023-02-04T04:11:38;92196.59;;;1.74;86.99
6198;BME280;3132;42.622;23.328;2023-02-04T04:14:03;92208.94;;;1.38;89.22
6198;BME280;3132;42.622;23.328;2023-02-04T04:16:29;92190.97;;;1.10;90.02
6198;BME280;3132;42.622;23.328;2023-02-04T04:18:54;92195.19;;;1.33;89.26
6198;BME280;3132;42.622;23.328;2023-02-04T04:21:20;92170.72;;;1.47;87.61
6198;BME280;3132;42.622;23.328;2023-02-04T04:23:45;92178.69;;;1.29;88.99
6198;BME280;3132;42.622;23.328;2023-02-04T04:26:11;92155.91;;;1.04;89.10
6198;BME280;3132;42.622;23.328;2023-02-04T04:28:36;92214.50;;;1.19;94.20
6198;BME280;3132;42.622;23.328;2023-02-04T04:31:02;92214.97;;;1.32;90.08
6198;BME280;3132;42.622;23.328;2023-02-04T04:33:27;92193.59;;;0.99;90.61
6198;BME280;3132;42.622;23.328;2023-02-04T04:35:52;92201.63;;;0.74;92.76
6198;BME280;3132;42.622;23.328;2023-02-04T04:38:18;92184.06;;;1.27;88.33
6198;BME280;3132;42.622;23.328;2023-02-04T04:40:43;92227.94;;;1.71;87.22
6198;BME280;3132;42.622;23.328;2023-02-04T04:43:09;92207.72;;;0.85;90.42
6198;BME280;3132;42.622;23.328;2023-02-04T04:45:34;92172.66;;;1.07;88.08
6198;BME280;3132;42.622;23.328;2023-02-04T04:47:59;92218.09;;;1.34;88.44
6198;BME280;3132;42.622;23.328;2023-02-04T04:50:25;92248.16;;;1.34;89.11
6198;BME280;3132;42.622;23.328;2023-02-04T04:52:50;92230.88;;;1.01;90.45
6198;BME280;3132;42.622;23.328;2023-02-04T04:55:16;92250.91;;;0.99;91.54
6198;BME280;3132;42.622;23.328;2023-02-04T04:57:41;92233.06;;;0.93;90.64
6198;BME280;3132;42.622;23.328;2023-02-04T05:00:10;92229.44;;;1.05;91.42
6198;BME280;3132;42.622;23.328;2023-02-04T05:02:36;92244.94;;;1.10;91.48
6198;BME280;3132;42.622;23.328;2023-02-04T05:05:01;92257.25;;;1.08;91.99
6198;BME280;3132;42.622;23.328;2023-02-04T05:07:27;92252.91;;;1.25;92.10
6198;BME280;3132;42.622;23.328;2023-02-04T05:09:52;92241.94;;;1.46;92.67
6198;BME280;3132;42.622;23.328;2023-02-04T05:12:17;92228.81;;;1.59;91.32
6198;BME280;3132;42.622;23.328;2023-02-04T05:14:43;92225.75;;;2.55;84.96
6198;BME280;3132;42.622;23.328;2023-02-04T05:17:08;92243.59;;;2.78;83.91
6198;BME280;3132;42.622;23.328;2023-02-04T05:19:33;92251.00;;;2.96;81.61
6198;BME280;3132;42.622;23.328;2023-02-04T05:21:59;92230.13;;;2.98;81.45
6198;BME280;3132;42.622;23.328;2023-02-04T05:24:26;92241.88;;;2.89;80.73
6198;BME280;3132;42.622;23.328;2023-02-04T05:26:52;92265.44;;;2.97;78.99
6198;BME280;3132;42.622;23.328;2023-02-04T05:29:17;92246.44;;;2.82;78.66
6198;BME280;3132;42.622;23.328;2023-02-04T05:31:42;92249.19;;;2.97;76.62
6198;BME280;3132;42.622;23.328;2023-02-04T05:34:08;92260.28;;;2.97;77.36
6198;BME280;3132;42.622;23.328;2023-02-04T05:36:33;92295.47;;;3.08;78.86
6198;BME280;3132;42.622;23.328;2023-02-04T05:38:58;92295.34;;;3.20;78.23
6198;BME280;3132;42.622;23.328;2023-02-04T05:41:24;92297.34;;;3.40;78.04
6198;BME280;3132;42.622;23.328;2023-02-04T05:43:49;92275.25;;;3.00;75.79
6198;BME280;3132;42.622;23.328;2023-02-04T05:46:14;92319.31;;;2.99;75.49
6198;BME280;3132;42.622;23.328;2023-02-04T05:48:40;92328.97;;;2.87;78.00
6198;BME280;3132;42.622;23.328;2023-02-04T05:51:05;92318.00;;;2.75;83.25
6198;BME280;3132;42.622;23.328;2023-02-04T05:53:31;92309.34;;;2.43;81.38
6198;BME280;3132;42.622;23.328;2023-02-04T05:55:56;92313.78;;;2.31;82.20
6198;BME280;3132;42.622;23.328;2023-02-04T05:58:21;92334.91;;;2.49;82.72
6198;BME280;3132;42.622;23.328;2023-02-04T06:00:47;92333.75;;;2.40;85.44
6198;BME280;3132;42.622;23.328;2023-02-04T06:03:12;92294.81;;;2.37;82.65
6198;BME280;3132;42.622;23.328;2023-02-04T06:05:39;92250.69;;;2.12;79.74
6198;BME280;3132;42.622;23.328;2023-02-04T06:08:04;92271.69;;;2.42;78.86
6198;BME280;3132;42.622;23.328;2023-02-04T06:10:30;92293.22;;;2.52;75.78
6198;BME280;3132;42.622;23.328;2023-02-04T06:12:55;92288.53;;;2.66;74.72
6198;BME280;3132;42.622;23.328;2023-02-04T06:15:20;92334.66;;;2.67;73.62
6198;BME280;3132;42.622;23.328;2023-02-04T06:17:46;92292.66;;;2.67;74.40
6198;BME280;3132;42.622;23.328;2023-02-04T06:20:13;92328.25;;;2.70;73.65
6198;BME280;3132;42.622;23.328;2023-02-04T06:22:38;92282.25;;;2.78;75.62
6198;BME280;3132;42.622;23.328;2023-02-04T06:25:04;92304.72;;;2.83;73.84
6198;BME280;3132;42.622;23.328;2023-02-04T06:27:29;92333.72;;;2.95;73.59
6198;BME280;3132;42.622;23.328;2023-02-04T06:29:55;92325.28;;;2.99;75.38
6198;BME280;3132;42.622;23.328;2023-02-04T06:32:22;92303.13;;;2.82;73.53
6198;BME280;3132;42.622;23.328;2023-02-04T06:34:47;92307.81;;;2.85;72.32
6198;BME280;3132;42.622;23.328;2023-02-04T06:37:13;92335.28;;;2.96;70.77
6198;BME280;3132;42.622;23.328;2023-02-04T06:39:40;92339.47;;;3.02;71.33
6198;BME280;3132;42.622;23.328;2023-02-04T06:42:05;92324.06;;;3.07;70.40
6198;BME280;3132;42.622;23.328;2023-02-04T06:44:30;92333.19;;;3.14;69.78
6198;BME280;3132;42.622;23.328;2023-02-04T06:46:56;92306.03;;;3.07;71.82
6198;BME280;3132;42.622;23.328;2023-02-04T06:49:21;92307.47;;;2.98;70.86
6198;BME280;3132;42.622;23.328;2023-02-04T06:51:49;92333.00;;;2.99;71.38
6198;BME280;3132;42.622;23.328;2023-02-04T06:54:15;92327.75;;;3.11;71.90
6198;BME280;3132;42.622;23.328;2023-02-04T06:56:40;92256.81;;;2.87;71.23
6198;BME280;3132;42.622;23.328;2023-02-04T06:59:08;92326.03;;;3.43;72.85
6198;BME280;3132;42.622;23.328;2023-02-04T07:01:33;92308.31;;;3.25;70.29
6198;BME280;3132;42.622;23.328;2023-02-04T07:03:59;92311.03;;;3.40;71.24
6198;BME280;3132;42.622;23.328;2023-02-04T07:06:24;92330.31;;;3.33;71.18
6198;BME280;3132;42.622;23.328;2023-02-04T07:08:49;92302.63;;;3.01;71.96
6198;BME280;3132;42.622;23.328;2023-02-04T07:11:15;92320.50;;;3.08;72.10
6198;BME280;3132;42.622;23.328;2023-02-04T07:13:40;92314.88;;;3.16;73.83
6198;BME280;3132;42.622;23.328;2023-02-04T07:16:06;92312.69;;;3.24;72.54
6198;BME280;3132;42.622;23.328;2023-02-04T07:18:32;92312.50;;;3.31;72.38
6198;BME280;3132;42.622;23.328;2023-02-04T07:20:57;92300.03;;;3.23;73.77
6198;BME280;3132;42.622;23.328;2023-02-04T07:23:23;92305.66;;;3.20;73.00
6198;BME280;3132;42.622;23.328;2023-02-04T07:25:49;92281.19;;;3.01;72.65
6198;BME280;3132;42.622;23.328;2023-02-04T07:28:17;92287.88;;;3.72;73.39
6198;BME280;3132;42.622;23.328;2023-02-04T07:30:42;92292.19;;;3.40;70.91
6198;BME280;3132;42.622;23.328;2023-02-04T07:33:08;92295.00;;;3.38;71.40
6198;BME280;3132;42.622;23.328;2023-02-04T07:35:33;92267.69;;;3.37;70.50
6198;BME280;3132;42.622;23.328;2023-02-04T07:37:58;92284.03;;;3.48;74.08
6198;BME280;3132;42.622;23.328;2023-02-04T07:40:24;92244.44;;;3.10;71.39
6198;BME280;3132;42.622;23.328;2023-02-04T07:42:49;92252.50;;;3.41;71.57
6198;BME280;3132;42.622;23.328;2023-02-04T07:45:15;92257.66;;;3.67;71.72
6198;BME280;3132;42.622;23.328;2023-02-04T07:47:41;92264.56;;;3.93;70.50
6198;BME280;3132;42.622;23.328;2023-02-04T07:50:07;92261.94;;;3.88;69.74
6198;BME280;3132;42.622;23.328;2023-02-04T07:52:32;92283.19;;;3.95;69.07
6198;BME280;3132;42.622;23.328;2023-02-04T07:54:58;92267.69;;;4.00;67.81
6198;BME280;3132;42.622;23.328;2023-02-04T07:57:23;92252.47;;;3.99;67.24
6198;BME280;3132;42.622;23.328;2023-02-04T07:59:49;92286.91;;;4.14;66.85
6198;BME280;3132;42.622;23.328;2023-02-04T08:02:14;92289.31;;;3.89;68.80
6198;BME280;3132;42.622;23.328;2023-02-04T08:04:39;92295.75;;;3.87;69.22
6198;BME280;3132;42.622;23.328;2023-02-04T08:07:05;92290.59;;;3.87;69.19
6198;BME280;3132;42.622;23.328;2023-02-04T08:09:30;92275.88;;;3.87;69.79
6198;BME280;3132;42.622;23.328;2023-02-04T08:11:56;92260.19;;;3.94;70.91
6198;BME280;3132;42.622;23.328;2023-02-04T08:14:21;92294.16;;;3.81;70.13
6198;BME280;3132;42.622;23.328;2023-02-04T08:16:47;92266.81;;;3.58;70.46
6198;BME280;3132;42.622;23.328;2023-02-04T08:19:12;92253.00;;;3.69;70.70
6198;BME280;3132;42.622;23.328;2023-02-04T08:21:43;92288.16;;;3.75;70.74
6198;BME280;3132;42.622;23.328;2023-02-04T08:24:10;92284.63;;;3.86;69.85
6198;BME280;3132;42.622;23.328;2023-02-04T08:26:36;92286.13;;;4.09;72.61
6198;BME280;3132;42.622;23.328;2023-02-04T08:29:01;92241.53;;;3.87;68.71
6198;BME280;3132;42.622;23.328;2023-02-04T08:31:26;92280.28;;;4.23;70.21
6198;BME280;3132;42.622;23.328;2023-02-04T08:33:52;92244.56;;;3.79;69.40
6198;BME280;3132;42.622;23.328;2023-02-04T08:36:17;92249.13;;;4.03;68.12
6198;BME280;3132;42.622;23.328;2023-02-04T08:38:42;92223.75;;;3.90;68.66
6198;BME280;3132;42.622;23.328;2023-02-04T08:41:09;92260.78;;;4.06;68.76
6198;BME280;3132;42.622;23.328;2023-02-04T08:43:34;92230.91;;;3.78;69.90
6198;BME280;3132;42.622;23.328;2023-02-04T08:46:01;92266.69;;;4.01;69.78
6198;BME280;3132;42.622;23.328;2023-02-04T08:48:26;92263.03;;;3.97;73.48
6198;BME280;3132;42.622;23.328;2023-02-04T08:50:51;92275.59;;;4.20;70.75
6198;BME280;3132;42.622;23.328;2023-02-04T08:53:17;92231.09;;;3.72;70.79
6198;BME280;3132;42.622;23.328;2023-02-04T08:55:42;92253.66;;;3.86;71.18
6198;BME280;3132;42.622;23.328;2023-02-04T08:58:08;92259.84;;;4.17;71.02
6198;BME280;3132;42.622;23.328;2023-02-04T09:00:33;92257.41;;;4.05;70.66
6198;BME280;3132;42.622;23.328;2023-02-04T09:02:58;92268.94;;;4.24;71.08
6198;BME280;3132;42.622;23.328;2023-02-04T09:05:24;92261.13;;;4.19;72.38
6198;BME280;3132;42.622;23.328;2023-02-04T09:07:49;92267.00;;;4.46;72.92
6198;BME280;3132;42.622;23.328;2023-02-04T09:10:15;92266.00;;;4.16;70.66
6198;BME280;3132;42.622;23.328;2023-02-04T09:12:40;92265.88;;;4.37;70.35
6198;BME280;3132;42.622;23.328;2023-02-04T09:15:08;92242.50;;;4.12;69.81
6198;BME280;3132;42.622;23.328;2023-02-04T09:17:34;92249.78;;;4.62;69.41
6198;BME280;3132;42.622;23.328;2023-02-04T09:20:00;92246.53;;;4.03;69.98
6198;BME280;3132;42.622;23.328;2023-02-04T09:22:25;92249.16;;;4.08;70.79
6198;BME280;3132;42.622;23.328;2023-02-04T09:24:50;92241.56;;;4.28;69.73
6198;BME280;3132;42.622;23.328;2023-02-04T09:27:16;92264.31;;;4.26;70.29
6198;BME280;3132;42.622;23.328;2023-02-04T09:29:41;92255.47;;;4.22;68.79
6198;BME280;3132;42.622;23.328;2023-02-04T09:32:07;92261.09;;;4.09;70.07
6198;BME280;3132;42.622;23.328;2023-02-04T09:34:32;92262.38;;;4.12;70.10
6198;BME280;3132;42.622;23.328;2023-02-04T09:36:57;92266.75;;;4.11;70.72
6198;BME280;3132;42.622;23.328;2023-02-04T09:39:23;92257.13;;;4.02;71.97
6198;BME280;3132;42.622;23.328;2023-02-04T09:41:49;92254.38;;;4.13;73.34
6198;BME280;3132;42.622;23.328;2023-02-04T09:44:18;92251.56;;;4.15;74.22
6198;BME280;3132;42.622;23.328;2023-02-04T09:46:48;92218.94;;;3.72;75.40
6198;BME280;3132;42.622;23.328;2023-02-04T09:49:14;92244.25;;;3.70;76.89
6198;BME280;3132;42.622;23.328;2023-02-04T09:51:40;92227.44;;;3.68;77.10
6198;BME280;3132;42.622;23.328;2023-02-04T09:54:12;92206.94;;;3.88;79.45
6198;BME280;3132;42.622;23.328;2023-02-04T09:56:38;92236.88;;;4.25;76.59
6198;BME280;3132;42.622;23.328;2023-02-04T09:59:10;92224.13;;;4.09;73.37
6198;BME280;3132;42.622;23.328;2023-02-04T10:01:36;92230.44;;;4.23;73.38
6198;BME280;3132;42.622;23.328;2023-02-04T10:04:02;92203.00;;;4.17;73.66
6198;BME280;3132;42.622;23.328;2023-02-04T10:06:28;92212.72;;;4.05;74.31
6198;BME280;3132;42.622;23.328;2023-02-04T10:08:54;92195.22;;;3.70;72.71
6198;BME280;3132;42.622;23.328;2023-02-04T10:11:21;92210.88;;;3.95;72.77
6198;BME280;3132;42.622;23.328;2023-02-04T10:13:49;92212.75;;;4.10;72.50
6198;BME280;3132;42.622;23.328;2023-02-04T10:16:21;92214.56;;;4.04;71.98
6198;BME280;3132;42.622;23.328;2023-02-04T10:19:01;92223.97;;;4.25;71.57
6198;BME280;3132;42.622;23.328;2023-02-04T10:21:31;92211.00;;;4.15;71.32
6198;BME280;3132;42.622;23.328;2023-02-04T10:23:58;92179.41;;;4.03;75.94
6198;BME280;3132;42.622;23.328;2023-02-04T10:26:28;92198.94;;;3.84;73.58
6198;BME280;3132;42.622;23.328;2023-02-04T10:29:18;92195.91;;;3.97;73.24
6198;BME280;3132;42.622;23.328;2023-02-04T10:31:46;92172.47;;;3.67;72.08
6198;BME280;3132;42.622;23.328;2023-02-04T10:36:44;92206.94;;;4.24;73.34
6198;BME280;3132;42.622;23.328;2023-02-04T10:39:14;92218.50;;;3.80;76.07
6198;BME280;3132;42.622;23.328;2023-02-04T10:41:54;92197.91;;;3.54;79.36
6198;BME280;3132;42.622;23.328;2023-02-04T10:44:33;92209.00;;;3.54;80.39
6198;BME280;3132;42.622;23.328;2023-02-04T10:47:01;92180.50;;;3.39;80.69
6198;BME280;3132;42.622;23.328;2023-02-04T10:49:27;92162.41;;;3.34;81.35
6198;BME280;3132;42.622;23.328;2023-02-04T10:51:53;92168.59;;;3.33;80.45
6198;BME280;3132;42.622;23.328;2023-02-04T10:54:22;92176.19;;;3.50;80.80
6198;BME280;3132;42.622;23.328;2023-02-04T10:59:34;92124.66;;;3.60;77.34
6198;BME280;3132;42.622;23.328;2023-02-04T11:02:02;92155.34;;;3.93;75.50
6198;BME280;3132;42.622;23.328;2023-02-04T11:04:40;92166.63;;;4.23;73.67
6198;BME280;3132;42.622;23.328;2023-02-04T11:07:11;92164.66;;;3.99;72.65
6198;BME280;3132;42.622;23.328;2023-02-04T11:09:40;92169.22;;;4.28;73.31
6198;BME280;3132;42.622;23.328;2023-02-04T11:12:19;92150.88;;;4.30;71.78
6198;BME280;3132;42.622;23.328;2023-02-04T11:14:54;92151.06;;;4.75;72.21
6198;BME280;3132;42.622;23.328;2023-02-04T11:17:20;92154.38;;;4.55;69.56
6198;BME280;3132;42.622;23.328;2023-02-04T11:19:45;92135.94;;;4.37;69.49
6198;BME280;3132;42.622;23.328;2023-02-04T11:22:22;92145.84;;;4.60;69.60
6198;BME280;3132;42.622;23.328;2023-02-04T11:24:48;92143.50;;;4.58;69.92
6198;BME280;3132;42.622;23.328;2023-02-04T11:27:23;92143.00;;;4.61;68.90
6198;BME280;3132;42.622;23.328;2023-02-04T11:29:49;92137.31;;;4.54;69.67
6198;BME280;3132;42.622;23.328;2023-02-04T11:32:37;92154.09;;;4.52;69.78
6198;BME280;3132;42.622;23.328;2023-02-04T11:37:41;92138.25;;;4.33;72.06
6198;BME280;3132;42.622;23.328;2023-02-04T11:40:34;92162.88;;;4.51;71.99
6198;BME280;3132;42.622;23.328;2023-02-04T11:43:07;92163.75;;;4.81;71.29
6198;BME280;3132;42.622;23.328;2023-02-04T11:45:35;92159.56;;;4.65;70.96
6198;BME280;3132;42.622;23.328;2023-02-04T11:48:09;92149.72;;;4.57;71.26
6198;BME280;3132;42.622;23.328;2023-02-04T11:50:35;92128.00;;;4.02;71.83
6198;BME280;3132;42.622;23.328;2023-02-04T11:53:04;92135.13;;;4.26;72.23
6198;BME280;3132;42.622;23.328;2023-02-04T11:55:31;92158.38;;;4.31;71.70
6198;BME280;3132;42.622;23.328;2023-02-04T11:57:58;92156.66;;;4.52;74.52
6198;BME280;3132;42.622;23.328;2023-02-04T12:00:28;92147.03;;;4.32;72.58
6198;BME280;3132;42.622;23.328;2023-02-04T12:02:57;92169.09;;;4.60;72.77
6198;BME280;3132;42.622;23.328;2023-02-04T12:05:41;92166.94;;;4.37;74.77
6198;BME280;3132;42.622;23.328;2023-02-04T12:13:23;92138.50;;;3.85;77.42
6198;BME280;3132;42.622;23.328;2023-02-04T12:16:03;92132.44;;;3.65;78.20
6198;BME280;3132;42.622;23.328;2023-02-04T12:18:31;92125.38;;;3.50;79.13
6198;BME280;3132;42.622;23.328;2023-02-04T12:20:57;92152.72;;;3.88;79.21
6198;BME280;3132;42.622;23.328;2023-02-04T12:23:24;92134.91;;;3.86;79.36
6198;BME280;3132;42.622;23.328;2023-02-04T12:25:50;92148.38;;;3.93;80.36
6198;BME280;3132;42.622;23.328;2023-02-04T12:28:16;92142.22;;;3.58;80.74
6198;BME280;3132;42.622;23.328;2023-02-04T12:30:41;92131.19;;;3.72;80.33
6198;BME280;3132;42.622;23.328;2023-02-04T12:33:07;92123.84;;;3.54;78.85
6198;BME280;3132;42.622;23.328;2023-02-04T12:35:33;92126.03;;;3.67;78.73
6198;BME280;3132;42.622;23.328;2023-02-04T12:37:59;92138.19;;;3.72;78.61
6198;BME280;3132;42.622;23.328;2023-02-04T12:40:24;92126.50;;;3.64;79.40
6198;BME280;3132;42.622;23.328;2023-02-04T12:42:50;92132.41;;;4.01;81.34
6198;BME280;3132;42.622;23.328;2023-02-04T12:45:16;92113.38;;;3.71;77.78
6198;BME280;3132;42.622;23.328;2023-02-04T12:47:42;92144.88;;;3.73;76.11
6198;BME280;3132;42.622;23.328;2023-02-04T12:50:13;92139.81;;;3.83;76.14
6198;BME280;3132;42.622;23.328;2023-02-04T12:52:38;92141.63;;;3.92;75.75
6198;BME280;3132;42.622;23.328;2023-02-04T12:55:06;92128.28;;;4.05;74.48
6198;BME280;3132;42.622;23.328;2023-02-04T12:57:33;92127.31;;;4.16;73.05
6198;BME280;3132;42.622;23.328;2023-02-04T12:59:58;92145.41;;;4.16;73.48
6198;BME280;3132;42.622;23.328;2023-02-04T13:02:26;92135.63;;;4.23;73.76
6198;BME280;3132;42.622;23.328;2023-02-04T13:04:52;92137.63;;;4.11;73.24
6198;BME280;3132;42.622;23.328;2023-02-04T13:07:17;92145.25;;;3.91;74.26
6198;BME280;3132;42.622;23.328;2023-02-04T13:09:43;92137.22;;;3.88;74.77
6198;BME280;3132;42.622;23.328;2023-02-04T13:12:12;92132.31;;;3.81;76.37
6198;BME280;3132;42.622;23.328;2023-02-04T13:14:39;92147.00;;;3.81;76.79
6198;BME280;3132;42.622;23.328;2023-02-04T13:17:05;92137.81;;;3.58;76.35
6198;BME280;3132;42.622;23.328;2023-02-04T13:19:30;92163.53;;;3.80;76.21
6198;BME280;3132;42.622;23.328;2023-02-04T13:21:57;92139.84;;;3.51;76.77
6198;BME280;3132;42.622;23.328;2023-02-04T13:24:22;92151.88;;;3.41;76.99
6198;BME280;3132;42.622;23.328;2023-02-04T13:26:48;92142.41;;;3.51;77.39
6198;BME280;3132;42.622;23.328;2023-02-04T13:29:13;92157.41;;;3.54;77.90
6198;BME280;3132;42.622;23.328;2023-02-04T13:31:38;92156.00;;;3.42;77.05